createdAt,value
2018-02-24T00:00:51.748Z,98484.66
2018-02-24T00:03:18.021Z,98482.27
2018-02-24T00:05:44.264Z,98486.63
2018-02-24T00:08:10.512Z,98488.23
2018-02-24T00:10:36.771Z,98485.70
2018-02-24T00:13:03.046Z,98484.53
2018-02-24T00:15:29.304Z,98484.19
2018-02-24T00:17:55.563Z,98478.99
2018-02-24T00:20:21.796Z,98484.17
2018-02-24T00:22:48.048Z,98485.58
2018-02-24T00:25:14.416Z,98486.37
2018-02-24T00:27:40.696Z,98489.29
2018-02-24T00:30:06.967Z,98493.00
2018-02-24T00:32:33.227Z,98487.36
2018-02-24T00:34:59.476Z,98493.25
2018-02-24T00:37:25.748Z,98501.06
2018-02-24T00:39:52.005Z,98495.34
2018-02-24T00:42:18.313Z,98490.36
2018-02-24T00:44:44.521Z,98493.41
2018-02-24T00:47:10.816Z,98493.59
2018-02-24T00:49:37.088Z,98491.98
2018-02-24T00:52:03.352Z,98495.94
2018-02-24T00:54:29.652Z,98492.67
2018-02-24T00:56:55.929Z,98486.66
2018-02-24T00:59:22.271Z,98496.69
2018-02-24T01:01:48.567Z,98491.75
2018-02-24T01:04:14.844Z,98491.53
2018-02-24T01:06:41.079Z,98486.66
2018-02-24T01:09:07.371Z,98480.85
2018-02-24T01:11:33.699Z,98476.78
2018-02-24T01:13:59.948Z,98478.84
2018-02-24T01:16:26.207Z,98476.71
2018-02-24T01:18:52.435Z,98481.23
2018-02-24T01:21:18.661Z,98483.91
2018-02-24T01:23:44.932Z,98482.06
2018-02-24T01:26:11.186Z,98477.72
2018-02-24T01:28:37.421Z,98474.71
2018-02-24T01:31:03.697Z,98478.84
2018-02-24T01:33:29.963Z,98474.67
2018-02-24T01:35:56.227Z,98475.28
2018-02-24T01:38:22.516Z,98474.00
2018-02-24T01:40:48.751Z,98470.52
2018-02-24T01:43:15.043Z,98463.61
2018-02-24T01:45:41.344Z,98463.31
2018-02-24T01:48:07.584Z,98464.00
2018-02-24T01:50:42.138Z,98456.67
2018-02-24T01:53:08.416Z,98459.39
2018-02-24T01:55:34.684Z,98450.31
2018-02-24T01:58:00.947Z,98453.80
2018-02-24T02:00:27.193Z,98464.33
2018-02-24T02:02:53.456Z,98467.80
2018-02-24T02:05:19.744Z,98464.96
2018-02-24T02:07:46.007Z,98461.91
2018-02-24T02:10:12.237Z,98462.88
2018-02-24T02:12:38.499Z,98461.92
2018-02-24T02:15:04.752Z,98458.50
2018-02-24T02:17:30.983Z,98460.46
2018-02-24T02:19:57.262Z,98469.30
2018-02-24T02:22:23.555Z,98459.58
2018-02-24T02:24:49.836Z,98457.12
2018-02-24T02:27:16.105Z,98458.66
2018-02-24T02:29:42.349Z,98461.89
2018-02-24T02:32:08.625Z,98464.41
2018-02-24T02:34:34.885Z,98466.12
2018-02-24T02:37:01.163Z,98466.86
2018-02-24T02:39:27.387Z,98464.78
2018-02-24T02:41:53.645Z,98472.33
2018-02-24T02:44:19.883Z,98475.25
2018-02-24T02:46:46.119Z,98472.80
2018-02-24T02:49:12.385Z,98481.14
2018-02-24T02:51:38.639Z,98475.11
2018-02-24T02:54:04.872Z,98476.34
2018-02-24T02:56:31.164Z,98476.25
2018-02-24T02:58:57.405Z,98474.81
2018-02-24T03:01:23.683Z,98472.39
2018-02-24T03:03:49.951Z,98465.89
2018-02-24T03:06:16.186Z,98471.30
2018-02-24T03:08:42.428Z,98470.73
2018-02-24T03:11:08.723Z,98465.62
2018-02-24T03:13:34.973Z,98465.01
2018-02-24T03:16:01.247Z,98466.00
2018-02-24T03:18:27.520Z,98475.30
2018-02-24T03:20:53.770Z,98470.75
2018-02-24T03:23:20.011Z,98466.12
2018-02-24T03:25:46.283Z,98466.27
2018-02-24T03:28:12.519Z,98466.63
2018-02-24T03:30:38.772Z,98476.34
2018-02-24T03:33:05.039Z,98472.07
2018-02-24T03:35:31.276Z,98480.70
2018-02-24T03:37:57.540Z,98476.44
2018-02-24T03:40:23.816Z,98489.64
2018-02-24T03:42:50.091Z,98491.98
2018-02-24T03:45:16.353Z,98481.22
2018-02-24T03:47:42.677Z,98492.48
2018-02-24T03:50:08.974Z,98488.20
2018-02-24T03:52:35.241Z,98487.07
2018-02-24T03:55:03.114Z,98486.28
2018-02-24T03:57:29.367Z,98487.72
2018-02-24T03:59:55.604Z,98492.92
2018-02-24T04:02:21.899Z,98498.98
2018-02-24T04:04:48.168Z,98494.59
2018-02-24T04:07:14.421Z,98503.09
2018-02-24T04:09:40.696Z,98510.38
2018-02-24T04:12:06.968Z,98507.89
2018-02-24T04:14:33.206Z,98510.43
2018-02-24T04:16:59.476Z,98520.68
2018-02-24T04:19:25.756Z,98517.95
2018-02-24T04:21:52.032Z,98522.97
2018-02-24T04:24:18.313Z,98524.65
2018-02-24T04:26:44.597Z,98524.60
2018-02-24T04:29:10.815Z,98521.78
2018-02-24T04:31:37.097Z,98524.01
2018-02-24T04:34:03.324Z,98521.48
2018-02-24T04:36:29.564Z,98524.23
2018-02-24T04:38:55.864Z,98524.85
2018-02-24T04:41:22.091Z,98522.77
2018-02-24T04:43:48.315Z,98532.30
2018-02-24T04:46:14.587Z,98532.62
2018-02-24T04:48:40.831Z,98525.65
2018-02-24T04:51:07.080Z,98526.16
2018-02-24T04:53:33.335Z,98524.20
2018-02-24T04:55:59.556Z,98527.92
2018-02-24T04:58:25.774Z,98526.74
2018-02-24T05:00:52.048Z,98535.72
2018-02-24T05:03:18.283Z,98539.13
2018-02-24T05:05:44.544Z,98536.67
2018-02-24T05:08:10.811Z,98546.80
2018-02-24T05:10:37.048Z,98548.72
2018-02-24T05:13:03.272Z,98547.64
2018-02-24T05:15:29.532Z,98545.23
2018-02-24T05:17:55.834Z,98546.75
2018-02-24T05:20:22.116Z,98549.33
2018-02-24T05:22:48.377Z,98547.64
2018-02-24T05:25:14.587Z,98555.34
2018-02-24T05:27:40.885Z,98548.55
2018-02-24T05:30:07.218Z,98549.11
2018-02-24T05:32:33.499Z,98553.52
2018-02-24T05:34:59.728Z,98555.50
2018-02-24T05:37:25.976Z,98551.09
2018-02-24T05:39:52.219Z,98559.55
2018-02-24T05:42:18.496Z,98568.67
2018-02-24T05:44:44.767Z,98572.16
2018-02-24T05:47:11.038Z,98568.28
2018-02-24T05:49:37.274Z,98580.84
2018-02-24T05:52:03.555Z,98578.86
2018-02-24T05:54:29.783Z,98590.06
2018-02-24T05:56:56.041Z,98585.11
2018-02-24T05:59:22.316Z,98583.09
2018-02-24T06:01:48.600Z,98587.70
2018-02-24T06:04:14.832Z,98587.88
2018-02-24T06:06:41.119Z,98588.34
2018-02-24T06:09:07.354Z,98595.94
2018-02-24T06:11:33.633Z,98599.60
2018-02-24T06:13:59.884Z,98598.13
2018-02-24T06:16:26.112Z,98594.46
2018-02-24T06:18:52.344Z,98597.41
2018-02-24T06:21:18.618Z,98595.70
2018-02-24T06:23:44.884Z,98598.76
2018-02-24T06:26:11.152Z,98598.28
2018-02-24T06:28:37.447Z,98596.49
2018-02-24T06:31:03.704Z,98590.63
2018-02-24T06:33:29.953Z,98592.86
2018-02-24T06:35:56.220Z,98594.42
2018-02-24T06:38:22.508Z,98603.64
2018-02-24T06:40:48.779Z,98614.05
2018-02-24T06:43:15.056Z,98613.98
2018-02-24T06:45:41.419Z,98617.19
2018-02-24T06:48:07.668Z,98617.50
2018-02-24T06:50:33.943Z,98617.65
2018-02-24T06:53:00.224Z,98624.51
2018-02-24T06:55:26.460Z,98630.02
2018-02-24T06:57:52.720Z,98631.24
2018-02-24T07:00:18.937Z,98631.22
2018-02-24T07:02:45.168Z,98634.67
2018-02-24T07:05:11.447Z,98641.23
2018-02-24T07:07:37.692Z,98632.05
2018-02-24T07:10:03.944Z,98637.86
2018-02-24T07:12:30.228Z,98638.39
2018-02-24T07:14:56.464Z,98637.77
2018-02-24T07:17:22.705Z,98635.67
2018-02-24T07:19:48.998Z,98636.33
2018-02-24T07:22:15.229Z,98638.31
2018-02-24T07:24:41.460Z,98648.93
2018-02-24T07:27:07.739Z,98644.19
2018-02-24T07:29:33.976Z,98648.40
2018-02-24T07:32:00.207Z,98651.65
2018-02-24T07:34:26.464Z,98647.58
2018-02-24T07:36:52.704Z,98651.33
2018-02-24T07:39:18.947Z,98652.86
2018-02-24T07:41:45.211Z,98647.65
2018-02-24T07:44:11.504Z,98648.83
2018-02-24T07:46:37.752Z,98658.11
2018-02-24T07:49:04.016Z,98659.30
2018-02-24T07:51:30.253Z,98658.08
2018-02-24T07:53:56.492Z,98661.05
2018-02-24T07:56:22.759Z,98666.00
2018-02-24T07:58:49.004Z,98665.92
2018-02-24T08:01:15.260Z,98671.41
2018-02-24T08:03:41.536Z,98674.95
2018-02-24T08:06:07.795Z,98673.87
2018-02-24T08:08:34.020Z,98678.25
2018-02-24T08:11:00.280Z,98677.25
2018-02-24T08:13:26.512Z,98671.70
2018-02-24T08:15:52.756Z,98672.73
2018-02-24T08:18:19.056Z,98677.25
2018-02-24T08:20:45.344Z,98684.95
2018-02-24T08:23:11.582Z,98684.98
2018-02-24T08:25:37.864Z,98694.09
2018-02-24T08:28:04.128Z,98693.27
2018-02-24T08:30:30.365Z,98687.97
2018-02-24T08:32:56.657Z,98693.22
2018-02-24T08:35:22.914Z,98687.79
2018-02-24T08:37:49.167Z,98696.08
2018-02-24T08:40:15.452Z,98688.16
2018-02-24T08:42:41.692Z,98686.77
2018-02-24T08:45:07.959Z,98701.31
2018-02-24T08:47:34.236Z,98694.22
2018-02-24T08:50:00.464Z,98693.73
2018-02-24T08:52:26.724Z,98691.36
2018-02-24T08:54:53.239Z,98692.12
2018-02-24T08:57:19.515Z,98687.31
2018-02-24T08:59:45.802Z,98681.77
2018-02-24T09:02:12.068Z,98681.61
2018-02-24T09:04:38.327Z,98687.34
2018-02-24T09:07:04.591Z,98676.41
2018-02-24T09:09:30.854Z,98676.50
2018-02-24T09:11:57.455Z,98672.61
2018-02-24T09:14:23.758Z,98671.26
2018-02-24T09:16:50.207Z,98678.81
2018-02-24T09:19:16.430Z,98679.02
2018-02-24T09:21:42.657Z,98670.34
2018-02-24T09:24:08.947Z,98675.53
2018-02-24T09:26:35.191Z,98686.55
2018-02-24T09:29:01.451Z,98689.94
2018-02-24T09:31:27.751Z,98686.26
2018-02-24T09:33:53.989Z,98683.14
2018-02-24T09:36:20.211Z,98688.76
2018-02-24T09:38:46.491Z,98693.20
2018-02-24T09:41:12.827Z,98685.98
2018-02-24T09:43:39.049Z,98683.02
2018-02-24T09:46:05.299Z,98685.03
2018-02-24T09:48:31.544Z,98684.86
2018-02-24T09:50:57.784Z,98680.76
2018-02-24T09:53:24.033Z,98689.44
2018-02-24T09:55:50.286Z,98691.41
2018-02-24T09:58:16.585Z,98696.69
2018-02-24T10:00:42.852Z,98691.11
2018-02-24T10:03:09.098Z,98687.42
2018-02-24T10:05:35.325Z,98697.55
2018-02-24T10:08:01.605Z,98691.08
2018-02-24T10:10:27.848Z,98690.16
2018-02-24T10:12:54.060Z,98685.66
2018-02-24T10:15:20.311Z,98688.97
2018-02-24T10:17:46.647Z,98690.72
2018-02-24T10:20:12.863Z,98688.19
2018-02-24T10:22:39.140Z,98698.50
2018-02-24T10:25:05.380Z,98680.78
2018-02-24T10:27:31.627Z,98679.11
2018-02-24T10:29:57.875Z,98681.25
2018-02-24T10:32:24.095Z,98684.61
2018-02-24T10:34:50.329Z,98684.86
2018-02-24T10:37:16.583Z,98679.72
2018-02-24T10:39:42.810Z,98682.03
2018-02-24T10:42:09.063Z,98680.52
2018-02-24T10:44:35.315Z,98693.98
2018-02-24T10:47:01.560Z,98695.58
2018-02-24T10:49:27.805Z,98696.42
2018-02-24T10:51:54.056Z,98696.72
2018-02-24T10:54:20.284Z,98695.50
2018-02-24T10:56:46.620Z,98702.09
2018-02-24T10:59:12.901Z,98689.92
2018-02-24T11:01:39.137Z,98692.16
2018-02-24T11:04:05.408Z,98680.94
2018-02-24T11:06:31.647Z,98674.03
2018-02-24T11:08:57.887Z,98672.54
2018-02-24T11:11:24.225Z,98669.75
2018-02-24T11:13:50.451Z,98663.91
2018-02-24T11:16:16.726Z,98661.80
2018-02-24T11:18:42.959Z,98658.30
2018-02-24T11:21:09.209Z,98660.13
2018-02-24T11:23:35.427Z,98649.73
2018-02-24T11:26:01.674Z,98650.20
2018-02-24T11:28:27.940Z,98655.98
2018-02-24T11:30:54.152Z,98660.80
2018-02-24T11:33:20.401Z,98649.65
2018-02-24T11:35:46.718Z,98655.08
2018-02-24T11:38:12.969Z,98664.97
2018-02-24T11:40:39.212Z,98654.65
2018-02-24T11:43:05.661Z,98646.26
2018-02-24T11:45:31.941Z,98647.30
2018-02-24T11:47:58.161Z,98634.41
2018-02-24T11:50:24.412Z,98640.04
2018-02-24T11:52:50.792Z,98645.56
2018-02-24T11:55:17.088Z,98644.20
2018-02-24T11:57:43.345Z,98642.34
2018-02-24T12:00:09.779Z,98651.20
2018-02-24T12:02:36.075Z,98653.19
2018-02-24T12:05:02.353Z,98641.22
2018-02-24T12:07:28.661Z,98634.30
2018-02-24T12:09:54.927Z,98634.45
2018-02-24T12:12:21.288Z,98630.16
2018-02-24T12:14:47.512Z,98630.73
2018-02-24T12:17:13.977Z,98623.65
2018-02-24T12:19:40.255Z,98631.29
2018-02-24T12:22:08.504Z,98613.71
2018-02-24T12:24:34.783Z,98607.70
2018-02-24T12:27:01.031Z,98623.40
2018-02-24T12:29:27.260Z,98623.77
2018-02-24T12:31:53.500Z,98624.62
2018-02-24T12:34:19.765Z,98615.86
2018-02-24T12:36:46.007Z,98614.02
2018-02-24T12:39:12.223Z,98609.70
2018-02-24T12:41:38.479Z,98611.05
2018-02-24T12:44:04.751Z,98607.72
2018-02-24T12:46:30.964Z,98606.76
2018-02-24T12:48:57.208Z,98600.84
2018-02-24T12:51:23.435Z,98600.01
2018-02-24T12:53:49.713Z,98612.27
2018-02-24T12:56:15.963Z,98606.48
2018-02-24T12:58:42.215Z,98602.62
2018-02-24T13:01:09.453Z,98601.86
2018-02-24T13:03:35.749Z,98605.55
2018-02-24T13:06:01.988Z,98615.83
2018-02-24T13:08:28.219Z,98599.95
2018-02-24T13:10:54.593Z,98595.27
2018-02-24T13:13:20.852Z,98599.98
2018-02-24T13:15:47.095Z,98596.03
2018-02-24T13:18:13.387Z,98593.53
2018-02-24T13:20:39.616Z,98600.90
2018-02-24T13:23:05.867Z,98600.30
2018-02-24T13:25:32.159Z,98596.39
2018-02-24T13:27:58.384Z,98597.26
2018-02-24T13:30:24.678Z,98593.19
2018-02-24T13:32:50.960Z,98595.41
2018-02-24T13:35:17.184Z,98595.04
2018-02-24T13:37:43.493Z,98589.88
2018-02-24T13:40:09.744Z,98615.67
2018-02-24T13:42:35.961Z,98597.39
2018-02-24T13:45:02.192Z,98604.33
2018-02-24T13:47:28.519Z,98606.63
2018-02-24T13:49:54.777Z,98607.45
2018-02-24T13:52:20.998Z,98609.80
2018-02-24T13:54:47.248Z,98603.19
2018-02-24T13:57:13.483Z,98610.73
2018-02-24T13:59:39.707Z,98607.20
2018-02-24T14:02:05.997Z,98617.40
2018-02-24T14:04:32.227Z,98614.98
2018-02-24T14:06:58.461Z,98625.02
2018-02-24T14:09:24.712Z,98618.03
2018-02-24T14:11:50.953Z,98623.52
2018-02-24T14:14:17.178Z,98626.45
2018-02-24T14:16:43.440Z,98624.56
2018-02-24T14:19:09.722Z,98621.89
2018-02-24T14:21:35.971Z,98634.55
2018-02-24T14:24:02.253Z,98640.12
2018-02-24T14:26:28.518Z,98629.52
2018-02-24T14:28:54.883Z,98633.68
2018-02-24T14:31:21.190Z,98638.25
2018-02-24T14:33:47.420Z,98634.04
2018-02-24T14:36:13.673Z,98629.73
2018-02-24T14:38:39.949Z,98625.47
2018-02-24T14:41:06.169Z,98628.05
2018-02-24T14:43:32.424Z,98613.62
2018-02-24T14:45:58.677Z,98623.26
2018-02-24T14:48:24.903Z,98633.84
2018-02-24T14:50:51.150Z,98625.51
2018-02-24T14:53:17.424Z,98627.86
2018-02-24T14:55:43.642Z,98629.14
2018-02-24T14:58:09.900Z,98631.55
2018-02-24T15:00:36.175Z,98631.92
2018-02-24T15:03:02.405Z,98643.76
2018-02-24T15:05:28.674Z,98640.08
2018-02-24T15:07:54.968Z,98640.25
2018-02-24T15:10:21.200Z,98643.42
2018-02-24T15:12:47.444Z,98646.42
2018-02-24T15:15:13.751Z,98641.50
2018-02-24T15:17:40.016Z,98633.30
2018-02-24T15:20:06.295Z,98634.25
2018-02-24T15:22:32.632Z,98632.88
2018-02-24T15:24:58.944Z,98644.89
2018-02-24T15:27:25.244Z,98645.73
2018-02-24T15:29:51.516Z,98658.77
2018-02-24T15:32:17.751Z,98654.48
2018-02-24T15:34:44.024Z,98658.23
2018-02-24T15:37:10.348Z,98648.73
2018-02-24T15:39:36.560Z,98660.39
2018-02-24T15:42:02.784Z,98657.63
2018-02-24T15:44:29.024Z,98667.34
2018-02-24T15:46:55.257Z,98668.10
2018-02-24T15:49:21.475Z,98666.20
2018-02-24T15:51:47.735Z,98664.62
2018-02-24T15:54:13.972Z,98669.45
2018-02-24T15:56:40.227Z,98670.86
2018-02-24T15:59:06.511Z,98673.05
2018-02-24T16:01:33.916Z,98675.04
2018-02-24T16:04:00.164Z,98681.35
2018-02-24T16:06:26.419Z,98684.69
2018-02-24T16:08:52.640Z,98689.57
2018-02-24T16:11:18.875Z,98686.05
2018-02-24T16:13:45.167Z,98689.55
2018-02-24T16:16:11.420Z,98694.22
2018-02-24T16:18:37.662Z,98692.08
2018-02-24T16:21:03.924Z,98699.48
2018-02-24T16:23:30.205Z,98701.95
2018-02-24T16:25:56.441Z,98711.27
2018-02-24T16:28:22.806Z,98711.03
2018-02-24T16:30:49.049Z,98705.48
2018-02-24T16:33:15.472Z,98714.41
2018-02-24T16:35:41.740Z,98715.90
2018-02-24T16:38:07.987Z,98723.43
2018-02-24T16:40:34.230Z,98723.78
2018-02-24T16:43:00.528Z,98729.55
2018-02-24T16:45:26.783Z,98730.90
2018-02-24T16:47:53.044Z,98730.09
2018-02-24T16:50:19.356Z,98732.56
2018-02-24T16:52:45.611Z,98739.47
2018-02-24T16:55:11.856Z,98741.77
2018-02-24T16:57:38.128Z,98736.37
2018-02-24T17:00:04.404Z,98734.02
2018-02-24T17:02:30.705Z,98741.20
2018-02-24T17:04:57.018Z,98740.16
2018-02-24T17:07:23.284Z,98743.43
2018-02-24T17:09:49.875Z,98748.95
2018-02-24T17:12:16.142Z,98759.08
2018-02-24T17:14:42.507Z,98755.34
2018-02-24T17:17:08.791Z,98760.73
2018-02-24T17:19:35.078Z,98763.75
2018-02-24T17:22:01.416Z,98772.88
2018-02-24T17:24:27.912Z,98775.00
2018-02-24T17:26:54.665Z,98771.07
2018-02-24T17:29:20.945Z,98772.09
2018-02-24T17:31:47.461Z,98775.16
2018-02-24T17:34:13.729Z,98775.55
2018-02-24T17:36:39.982Z,98777.70
2018-02-24T17:39:06.225Z,98783.25
2018-02-24T17:41:32.538Z,98775.45
2018-02-24T17:43:58.784Z,98780.11
2018-02-24T17:46:25.070Z,98786.66
2018-02-24T17:48:51.365Z,98781.86
2018-02-24T17:51:17.603Z,98782.83
2018-02-24T17:53:44.973Z,98788.33
2018-02-24T17:56:11.240Z,98787.51
2018-02-24T17:58:37.482Z,98794.52
2018-02-24T18:01:03.828Z,98800.12
2018-02-24T18:03:30.125Z,98794.42
2018-02-24T18:05:56.392Z,98796.53
2018-02-24T18:08:22.644Z,98799.86
2018-02-24T18:10:48.945Z,98797.92
2018-02-24T18:13:15.192Z,98803.60
2018-02-24T18:15:41.440Z,98809.48
2018-02-24T18:18:07.848Z,98803.98
2018-02-24T18:20:34.108Z,98811.45
2018-02-24T18:23:00.438Z,98806.52
2018-02-24T18:25:26.908Z,98808.81
2018-02-24T18:27:53.416Z,98808.67
2018-02-24T18:30:19.648Z,98814.95
2018-02-24T18:32:46.012Z,98823.86
2018-02-24T18:35:12.312Z,98822.38
2018-02-24T18:37:38.684Z,98829.48
2018-02-24T18:40:05.032Z,98825.45
2018-02-24T18:42:31.309Z,98832.12
2018-02-24T18:44:57.576Z,98836.16
2018-02-24T18:47:23.888Z,98842.55
2018-02-24T18:49:50.128Z,98834.76
2018-02-24T18:52:16.376Z,98842.72
2018-02-24T18:54:42.657Z,98840.94
2018-02-24T18:57:09.176Z,98853.71
2018-02-24T18:59:35.451Z,98855.13
2018-02-24T19:02:01.777Z,98854.59
2018-02-24T19:04:28.041Z,98855.16
2018-02-24T19:06:54.329Z,98857.44
2018-02-24T19:09:20.592Z,98862.52
2018-02-24T19:11:46.852Z,98867.16
2018-02-24T19:14:13.117Z,98866.77
2018-02-24T19:16:39.396Z,98874.03
2018-02-24T19:19:05.668Z,98869.96
2018-02-24T19:21:31.978Z,98873.68
2018-02-24T19:23:58.251Z,98869.91
2018-02-24T19:26:24.521Z,98875.28
2018-02-24T19:28:50.823Z,98875.38
2018-02-24T19:31:17.088Z,98875.32
2018-02-24T19:33:43.355Z,98885.64
2018-02-24T19:36:09.587Z,98880.97
2018-02-24T19:38:35.893Z,98876.73
2018-02-24T19:41:02.196Z,98885.70
2018-02-24T19:43:28.424Z,98876.42
2018-02-24T19:45:54.732Z,98880.25
2018-02-24T19:48:20.988Z,98874.97
2018-02-24T19:50:47.279Z,98887.95
2018-02-24T19:53:13.568Z,98879.27
2018-02-24T19:55:39.825Z,98880.74
2018-02-24T19:58:06.126Z,98886.81
2018-02-24T20:00:32.391Z,98883.61
2018-02-24T20:02:58.635Z,98879.52
2018-02-24T20:05:24.867Z,98883.91
2018-02-24T20:07:51.164Z,98878.09
2018-02-24T20:10:17.398Z,98882.30
2018-02-24T20:12:43.694Z,98886.82
2018-02-24T20:15:09.992Z,98881.91
2018-02-24T20:17:36.312Z,98880.77
2018-02-24T20:20:02.619Z,98880.44
2018-02-24T20:22:28.918Z,98882.91
2018-02-24T20:24:55.155Z,98888.56
2018-02-24T20:27:21.399Z,98885.81
2018-02-24T20:29:47.709Z,98880.83
2018-02-24T20:32:13.945Z,98889.92
2018-02-24T20:34:40.196Z,98905.66
2018-02-24T20:37:06.457Z,98897.05
2018-02-24T20:39:32.696Z,98909.02
2018-02-24T20:41:58.960Z,98911.70
2018-02-24T20:44:25.249Z,98912.40
2018-02-24T20:46:51.480Z,98914.02
2018-02-24T20:49:17.777Z,98915.59
2018-02-24T20:51:44.052Z,98924.47
2018-02-24T20:54:10.280Z,98924.59
2018-02-24T20:56:36.616Z,98917.75
2018-02-24T20:59:02.867Z,98916.69
2018-02-24T21:01:29.154Z,98913.00
2018-02-24T21:03:55.436Z,98915.56
2018-02-24T21:06:21.771Z,98913.41
2018-02-24T21:08:48.020Z,98927.30
2018-02-24T21:11:14.255Z,98930.09
2018-02-24T21:13:41.056Z,98925.55
2018-02-24T21:16:07.296Z,98931.58
2018-02-24T21:18:33.529Z,98934.78
2018-02-24T21:20:59.793Z,98931.90
2018-02-24T21:23:26.036Z,98930.94
2018-02-24T21:25:52.270Z,98937.27
2018-02-24T21:28:18.544Z,98930.25
2018-02-24T21:30:44.952Z,98931.73
2018-02-24T21:33:11.192Z,98933.70
2018-02-24T21:35:37.540Z,98937.09
2018-02-24T21:38:03.784Z,98935.56
2018-02-24T21:40:30.040Z,98933.92
2018-02-24T21:42:56.316Z,98939.19
2018-02-24T21:45:22.551Z,98929.30
2018-02-24T21:47:48.796Z,98937.66
2018-02-24T21:50:15.128Z,98937.48
2018-02-24T21:52:41.386Z,98943.05
2018-02-24T21:55:07.653Z,98940.91
2018-02-24T21:57:34.315Z,98941.13
2018-02-24T22:00:00.582Z,98940.46
2018-02-24T22:02:27.047Z,98941.03
2018-02-24T22:04:53.363Z,98939.28
2018-02-24T22:07:19.600Z,98938.69
2018-02-24T22:09:46.160Z,98939.94
2018-02-24T22:12:12.464Z,98947.84
2018-02-24T22:14:38.945Z,98944.91
2018-02-24T22:17:05.265Z,98946.53
2018-02-24T22:19:31.528Z,98947.30
2018-02-24T22:21:58.036Z,98941.78
2018-02-24T22:24:24.272Z,98941.31
2018-02-24T22:26:50.721Z,98939.17
2018-02-24T22:29:17.050Z,98935.00
2018-02-24T22:31:43.276Z,98938.52
2018-02-24T22:34:09.924Z,98942.57
2018-02-24T22:36:36.179Z,98945.52
2018-02-24T22:39:02.706Z,98941.52
2018-02-24T22:41:29.029Z,98933.80
2018-02-24T22:43:55.292Z,98940.43
2018-02-24T22:46:21.905Z,98946.97
2018-02-24T22:48:54.177Z,98945.22
2018-02-24T22:51:20.549Z,98949.00
2018-02-24T22:53:46.911Z,98949.14
2018-02-24T22:56:13.185Z,98953.24
2018-02-24T22:58:39.799Z,98948.51
2018-02-24T23:01:06.181Z,98951.22
2018-02-24T23:03:32.634Z,98940.69
2018-02-24T23:05:58.924Z,98946.86
2018-02-24T23:08:25.153Z,98946.41
2018-02-24T23:10:51.814Z,98950.86
2018-02-24T23:13:18.079Z,98954.35
2018-02-24T23:15:44.437Z,98951.88
2018-02-24T23:18:10.840Z,98946.59
2018-02-24T23:20:37.100Z,98948.63
2018-02-24T23:23:03.718Z,98950.86
2018-02-24T23:25:29.999Z,98952.72
2018-02-24T23:27:56.387Z,98945.95
2018-02-24T23:30:22.796Z,98950.69
2018-02-24T23:32:49.108Z,98946.41
2018-02-24T23:35:15.750Z,98944.16
2018-02-24T23:37:42.016Z,98948.13
2018-02-24T23:40:08.395Z,98952.75
2018-02-24T23:42:34.734Z,98948.13
2018-02-24T23:45:00.969Z,98944.02
2018-02-24T23:47:27.728Z,98946.58
2018-02-24T23:49:53.971Z,98942.60
2018-02-24T23:52:20.285Z,98941.28
2018-02-24T23:54:47.011Z,98938.91
2018-02-24T23:57:13.237Z,98942.88
2018-02-24T23:59:39.864Z,98943.69
